Time;durP1;ratioP1;P1;durP2;ratioP2;P2;SDS_P1;SDS_P2;PMS_P1;PMS_P2;Temp;Humidity;BMP_temperature;BMP_pressure;BME280_temperature;BME280_humidity;BME280_pressure;Samples;Min_cycle;Max_cycle;Signal;HPM_P1;HPM_P2
2023/04/29 00:00:12;;;;;;;0.25;0.25;;;;;;;11.98;69.77;101641.84;4978308;28;20113;-81
2023/04/29 00:02:39;;;;;;;0.10;0.10;;;;;;;12.01;69.22;101648.88;4976853;28;20085;-81
2023/04/29 00:05:05;;;;;;;1.10;0.70;;;;;;;12.00;69.51;101645.34;4982312;28;20129;-81
2023/04/29 00:07:32;;;;;;;7.53;2.35;;;;;;;12.03;69.16;101653.28;4981598;28;20357;-80
2023/04/29 00:09:59;;;;;;;0.30;0.30;;;;;;;12.04;69.33;101655.03;4983108;28;20496;-80
2023/04/29 00:12:25;;;;;;;0.10;0.10;;;;;;;12.03;69.36;101652.41;4982032;28;20034;-82
2023/04/29 00:14:51;;;;;;;0.20;0.20;;;;;;;12.00;69.12;101648.00;4980215;28;20518;-83
2023/04/29 00:17:18;;;;;;;0.17;0.17;;;;;;;12.01;69.31;101648.88;4976121;28;20039;-82
2023/04/29 00:19:44;;;;;;;0.35;0.35;;;;;;;11.98;68.89;101658.63;4989856;28;20045;-82
2023/04/29 00:22:10;;;;;;;1.17;1.10;;;;;;;12.01;69.40;101659.50;4988106;28;20026;-82
2023/04/29 00:24:36;;;;;;;0.17;0.17;;;;;;;11.96;68.93;101657.78;4988308;28;20030;-82
2023/04/29 00:27:02;;;;;;;0.10;0.10;;;;;;;11.95;69.31;101658.66;4987870;28;20050;-83
2023/04/29 00:29:28;;;;;;;0.20;0.20;;;;;;;11.94;68.56;101664.00;4982664;28;20577;-81
2023/04/29 00:31:54;;;;;;;0.20;0.20;;;;;;;11.93;69.19;101662.22;4980827;28;20031;-83
2023/04/29 00:34:21;;;;;;;0.20;0.20;;;;;;;11.91;68.84;101664.91;4985796;28;20050;-82
2023/04/29 00:36:47;;;;;;;0.20;0.20;;;;;;;11.93;69.05;101667.53;4984214;28;20026;-82
2023/04/29 00:39:13;;;;;;;0.17;0.17;;;;;;;11.89;68.90;101672.00;4985932;28;20035;-82
2023/04/29 00:41:39;;;;;;;1.27;1.17;;;;;;;11.91;68.54;101670.22;4988430;28;20699;-82
2023/04/29 00:44:06;;;;;;;0.22;0.22;;;;;;;11.83;68.69;101672.09;4990543;28;20125;-82
2023/04/29 00:46:33;;;;;;;1.15;0.57;;;;;;;11.80;69.10;101672.09;4984594;28;20452;-82
2023/04/29 00:49:00;;;;;;;1.75;1.65;;;;;;;11.81;68.91;101665.91;4990649;28;20027;-82
2023/04/29 00:51:27;;;;;;;0.15;0.15;;;;;;;11.82;68.63;101670.31;4993795;28;20038;-82
2023/04/29 00:53:53;;;;;;;0.98;0.98;;;;;;;11.82;68.51;101672.97;4989689;28;20038;-82
2023/04/29 00:56:20;;;;;;;0.43;0.43;;;;;;;11.84;69.05;101673.84;4987683;28;20026;-83
2023/04/29 00:58:49;;;;;;;0.10;0.10;;;;;;;11.86;68.53;101681.78;4989970;28;20090;-82
2023/04/29 01:01:18;;;;;;;0.50;0.50;;;;;;;11.81;68.73;101682.72;4985106;28;20026;-83
2023/04/29 01:03:44;;;;;;;0.65;0.65;;;;;;;11.83;68.21;101680.03;4991888;28;20078;-83
2023/04/29 01:11:33;;;;;;;0.20;0.20;;;;;;;11.82;68.05;101681.84;5084270;27;20870;-84
2023/04/29 01:14:01;;;;;;;4.13;2.28;;;;;;;11.80;68.22;101685.38;5067995;28;20060;-84
2023/04/29 01:16:38;;;;;;;0.10;0.10;;;;;;;11.83;68.58;101693.31;5074559;28;20485;-83
2023/04/29 01:19:21;;;;;;;0.20;0.20;;;;;;;11.85;68.21;101688.00;5062335;28;20052;-83
2023/04/29 01:21:48;;;;;;;0.32;0.32;;;;;;;11.82;68.64;101694.22;5069154;28;20025;-84
2023/04/29 01:24:15;;;;;;;1.77;1.63;;;;;;;11.82;68.32;101694.22;5073589;28;20064;-83
2023/04/29 01:26:49;;;;;;;1.00;1.00;;;;;;;11.85;68.77;101694.19;5072715;28;20032;-84
2023/04/29 01:29:34;;;;;;;0.10;0.10;;;;;;;11.92;68.16;101695.84;5069260;28;22612;-84
2023/04/29 01:32:08;;;;;;;0.47;0.47;;;;;;;11.92;68.63;101692.34;5069466;28;20031;-83
2023/04/29 01:35:04;;;;;;;1.25;0.63;;;;;;;11.90;68.50;101700.31;5057666;28;20033;-84
2023/04/29 01:40:25;;;;;;;0.43;0.43;;;;;;;11.90;68.40;101705.63;5119179;27;20410;-84
2023/04/29 01:43:02;;;;;;;0.40;0.40;;;;;;;11.92;68.44;101709.13;5089501;28;20062;-83
2023/04/29 01:45:30;;;;;;;0.13;0.13;;;;;;;11.86;68.33;101709.22;5080082;28;20461;-84
2023/04/29 01:47:58;;;;;;;0.35;0.35;;;;;;;11.83;68.95;101714.56;5086346;28;20032;-83
2023/04/29 01:50:24;;;;;;;0.20;0.20;;;;;;;11.82;68.23;101724.31;5092468;28;20042;-84
2023/04/29 01:52:50;;;;;;;0.10;0.10;;;;;;;11.87;68.42;101710.09;5102287;28;20032;-83
2023/04/29 01:55:17;;;;;;;0.85;0.85;;;;;;;11.86;68.43;101706.53;5098087;28;20096;-84
2023/04/29 01:57:43;;;;;;;0.52;0.52;;;;;;;11.88;68.63;101707.41;5093558;28;20119;-84
2023/04/29 02:00:10;;;;;;;0.10;0.10;;;;;;;11.88;68.20;101710.06;5090916;28;20454;-85
2023/04/29 02:02:36;;;;;;;0.40;0.40;;;;;;;11.90;68.12;101710.06;5095466;28;20105;-84
2023/04/29 02:05:02;;;;;;;0.38;0.38;;;;;;;11.91;68.66;101710.06;5080553;28;20037;-84
2023/04/29 02:07:29;;;;;;;0.10;0.10;;;;;;;11.91;68.75;101718.03;5089436;28;20031;-85
2023/04/29 02:09:55;;;;;;;0.28;0.28;;;;;;;11.94;68.31;101720.63;5087539;28;20029;-85
2023/04/29 02:12:21;;;;;;;0.40;0.40;;;;;;;11.96;68.54;101725.94;5087022;28;20032;-85
2023/04/29 02:14:51;;;;;;;0.20;0.20;;;;;;;11.96;68.90;101725.94;5083340;28;20036;-86
2023/04/29 02:17:17;;;;;;;0.17;0.17;;;;;;;11.97;68.13;101725.97;5088941;28;20111;-85
2023/04/29 02:19:43;;;;;;;5.78;2.47;;;;;;;11.97;68.84;101733.91;5089565;28;20080;-84
2023/04/29 02:22:11;;;;;;;0.47;0.47;;;;;;;11.98;68.37;101735.66;5086396;28;20036;-84
2023/04/29 02:24:37;;;;;;;0.15;0.15;;;;;;;12.02;68.22;101738.28;5084239;28;20150;-84
2023/04/29 02:27:05;;;;;;;0.20;0.20;;;;;;;12.03;68.16;101742.72;5084298;28;20058;-85
2023/04/29 02:29:32;;;;;;;0.28;0.28;;;;;;;12.04;68.53;101745.34;5082851;28;20101;-85
2023/04/29 02:31:58;;;;;;;0.57;0.57;;;;;;;12.04;68.12;101752.44;5095785;28;20038;-85
2023/04/29 02:34:24;;;;;;;0.10;0.10;;;;;;;12.07;68.12;101755.06;5078707;28;20028;-85
2023/04/29 02:36:50;;;;;;;1.15;0.50;;;;;;;12.08;68.26;101748.84;5086509;28;20042;-85
2023/04/29 02:39:16;;;;;;;0.25;0.25;;;;;;;12.07;67.94;101755.06;5092332;28;20036;-85
2023/04/29 02:41:42;;;;;;;0.10;0.10;;;;;;;12.04;68.33;101755.09;5083037;28;20118;-84
2023/04/29 02:44:08;;;;;;;0.20;0.20;;;;;;;12.08;67.74;101762.13;5090461;28;20043;-84
2023/04/29 02:46:35;;;;;;;0.10;0.10;;;;;;;12.10;68.23;101757.66;5076856;28;20077;-84
2023/04/29 02:49:02;;;;;;;0.30;0.30;;;;;;;12.10;67.84;101769.19;5088533;28;20052;-83
2023/04/29 02:51:29;;;;;;;0.10;0.10;;;;;;;12.09;67.86;101774.53;5067407;28;20442;-83
2023/04/29 02:53:55;;;;;;;0.80;0.63;;;;;;;12.07;67.69;101773.66;5070582;28;20835;-83
2023/04/29 02:56:22;;;;;;;0.10;0.10;;;;;;;12.04;67.78;101776.34;5081121;28;20036;-82
2023/04/29 02:58:48;;;;;;;0.65;0.65;;;;;;;12.06;67.51;101779.84;5077928;28;20486;-83
2023/04/29 03:01:14;;;;;;;0.10;0.10;;;;;;;12.06;67.66;101779.84;5087245;28;20512;-83
2023/04/29 03:03:40;;;;;;;5.85;0.98;;;;;;;12.05;67.25;101781.63;5068751;28;20016;-83
2023/04/29 03:06:07;;;;;;;3.58;0.60;;;;;;;12.07;66.83;101792.25;5084619;28;20027;-83
2023/04/29 03:08:33;;;;;;;0.20;0.20;;;;;;;12.10;67.44;101787.78;5071643;28;20481;-83
2023/04/29 03:10:59;;;;;;;0.25;0.25;;;;;;;12.09;66.99;101793.13;5086334;28;20020;-83
2023/04/29 03:13:25;;;;;;;0.10;0.10;;;;;;;12.11;67.16;101793.97;5078464;28;20025;-84
2023/04/29 03:15:51;;;;;;;0.32;0.32;;;;;;;12.13;66.99;101797.50;5086135;28;20279;-84
2023/04/29 03:18:17;;;;;;;1.13;1.13;;;;;;;12.09;66.78;101796.63;5084191;28;20020;-84
2023/04/29 03:20:43;;;;;;;0.82;0.80;;;;;;;12.11;67.33;101799.28;5081102;28;20028;-84
2023/04/29 03:23:09;;;;;;;0.13;0.13;;;;;;;12.12;66.88;101801.03;5086558;28;20052;-84
2023/04/29 03:25:39;;;;;;;0.10;0.10;;;;;;;12.14;67.01;101797.47;5078603;28;20058;-84
2023/04/29 03:28:05;;;;;;;0.20;0.20;;;;;;;12.12;66.73;101801.03;5076655;28;20024;-84
2023/04/29 03:30:32;;;;;;;0.10;0.10;;;;;;;12.14;66.41;101801.91;5084423;28;20036;-84
2023/04/29 03:32:58;;;;;;;0.43;0.43;;;;;;;12.13;66.60;101800.16;5082382;28;20025;-84
2023/04/29 03:35:24;;;;;;;0.30;0.30;;;;;;;12.12;66.88;101798.38;5074945;28;20032;-84
2023/04/29 03:37:50;;;;;;;0.10;0.10;;;;;;;12.14;66.70;101805.44;5073264;28;20061;-82
2023/04/29 03:40:16;;;;;;;4.03;0.82;;;;;;;12.15;66.79;101798.34;5074282;28;20021;-84
2023/04/29 03:42:42;;;;;;;0.22;0.22;;;;;;;12.14;66.53;101793.94;5077432;28;20047;-84
2023/04/29 03:45:11;;;;;;;0.10;0.10;;;;;;;12.14;66.60;101799.25;5071652;28;20045;-84
2023/04/29 03:47:38;;;;;;;0.00;0.00;;;;;;;12.16;66.49;101804.53;5070809;28;20020;-84
2023/04/29 03:50:05;;;;;;;0.40;0.40;;;;;;;12.19;67.05;101800.06;5078456;28;20388;-85
2023/04/29 03:52:31;;;;;;;0.30;0.30;;;;;;;12.20;66.48;101807.16;5075464;28;20056;-84
2023/04/29 03:54:57;;;;;;;0.95;0.82;;;;;;;12.21;67.25;101811.56;5070789;28;20033;-85
2023/04/29 03:57:23;;;;;;;0.10;0.10;;;;;;;12.24;67.08;101805.34;5081246;28;20501;-84
2023/04/29 03:59:50;;;;;;;0.20;0.20;;;;;;;12.24;67.07;101805.34;5078102;28;20028;-83
2023/04/29 04:02:16;;;;;;;0.10;0.10;;;;;;;12.23;67.27;101809.75;5071790;28;20054;-83
2023/04/29 04:04:42;;;;;;;0.00;0.00;;;;;;;12.22;67.08;101810.66;5066329;28;20036;-83
2023/04/29 04:07:08;;;;;;;0.10;0.10;;;;;;;12.23;66.73;101812.41;5078738;28;20119;-83
2023/04/29 04:09:34;;;;;;;0.10;0.10;;;;;;;12.25;66.64;101823.03;5078645;28;20029;-83
2023/04/29 04:12:01;;;;;;;0.10;0.10;;;;;;;12.20;66.63;101819.53;5086511;28;20035;-83
2023/04/29 04:14:27;;;;;;;0.10;0.10;;;;;;;12.20;66.10;101820.44;5078339;28;20087;-83
2023/04/29 04:16:54;;;;;;;0.35;0.35;;;;;;;12.21;66.62;101819.53;5073013;28;20486;-84
2023/04/29 04:19:20;;;;;;;0.68;0.68;;;;;;;12.22;66.83;101831.03;5080350;28;20040;-83
2023/04/29 04:21:46;;;;;;;0.10;0.10;;;;;;;12.21;66.27;101824.84;5074972;28;20027;-83
2023/04/29 04:24:12;;;;;;;0.10;0.10;;;;;;;12.22;67.12;101823.94;5075201;28;20037;-84
2023/04/29 04:26:38;;;;;;;0.10;0.10;;;;;;;12.23;66.63;101835.47;5077655;28;20016;-83
2023/04/29 04:29:04;;;;;;;0.10;0.10;;;;;;;12.23;66.42;101841.66;5079961;28;20017;-83
2023/04/29 04:31:30;;;;;;;0.10;0.10;;;;;;;12.22;65.88;101839.88;5083981;28;20020;-83
2023/04/29 04:33:58;;;;;;;0.20;0.20;;;;;;;12.25;66.50;101838.97;5074020;28;20040;-82
2023/04/29 04:36:24;;;;;;;0.10;0.10;;;;;;;12.27;66.44;101839.84;5074156;28;20076;-82
2023/04/29 04:38:50;;;;;;;0.20;0.20;;;;;;;12.26;66.31;101846.94;5070976;28;20517;-81
2023/04/29 04:41:16;;;;;;;0.10;0.10;;;;;;;12.25;66.94;101850.50;5072779;28;20040;-82
2023/04/29 04:43:42;;;;;;;0.10;0.10;;;;;;;12.26;66.83;101856.66;5081509;28;20036;-82
2023/04/29 04:46:11;;;;;;;0.73;0.73;;;;;;;12.27;66.78;101854.03;5074773;28;20043;-82
2023/04/29 04:48:37;;;;;;;0.20;0.20;;;;;;;12.27;66.09;101861.09;5066697;28;20457;-82
2023/04/29 04:51:12;;;;;;;0.20;0.20;;;;;;;12.32;66.22;101871.69;5070643;28;20024;-82
2023/04/29 04:53:38;;;;;;;2.53;0.75;;;;;;;12.27;66.54;101869.97;5064987;28;20112;-83
2023/04/29 04:56:05;;;;;;;0.10;0.10;;;;;;;12.28;66.39;101876.16;5072703;28;20554;-83
2023/04/29 04:58:32;;;;;;;0.10;0.10;;;;;;;12.27;66.10;101874.38;5074901;28;20039;-82
2023/04/29 05:00:59;;;;;;;0.10;0.10;;;;;;;12.29;66.58;101878.78;5071687;28;20050;-82
2023/04/29 05:03:25;;;;;;;0.90;0.90;;;;;;;12.27;65.92;101877.03;5070111;28;20036;-82
2023/04/29 05:05:56;;;;;;;1.15;0.73;;;;;;;12.33;66.46;101879.63;5076019;28;21032;-81
2023/04/29 05:08:22;;;;;;;0.10;0.10;;;;;;;12.34;66.10;101891.16;5077160;28;20084;-80
2023/04/29 05:10:48;;;;;;;0.10;0.10;;;;;;;12.35;66.49;101890.22;5087003;28;20024;-81
2023/04/29 05:13:14;;;;;;;0.10;0.10;;;;;;;12.37;66.76;101896.44;5073867;28;20032;-82
2023/04/29 05:15:40;;;;;;;1.27;1.20;;;;;;;12.39;66.63;101900.81;5085599;28;20028;-82
2023/04/29 05:18:06;;;;;;;0.10;0.10;;;;;;;12.40;66.40;101896.38;5069580;28;20016;-83
2023/04/29 05:20:33;;;;;;;0.65;0.63;;;;;;;12.42;66.39;101899.91;5078239;28;20115;-83
2023/04/29 05:22:59;;;;;;;0.20;0.20;;;;;;;12.44;66.29;101908.75;5071727;28;20127;-82
2023/04/29 05:25:25;;;;;;;0.17;0.17;;;;;;;12.46;66.27;101909.59;5072820;28;20033;-82
2023/04/29 05:27:52;;;;;;;0.30;0.30;;;;;;;12.49;66.58;101917.56;5077839;28;20044;-81
2023/04/29 05:30:18;;;;;;;0.10;0.10;;;;;;;12.49;66.50;101917.56;5078537;28;20043;-82
2023/04/29 05:32:44;;;;;;;0.10;0.10;;;;;;;12.52;66.32;101921.97;5075008;28;20037;-84
2023/04/29 05:35:11;;;;;;;0.40;0.40;;;;;;;12.50;66.36;101922.00;5080055;28;20044;-82
2023/04/29 05:37:37;;;;;;;0.10;0.10;;;;;;;12.52;66.73;101912.19;5077087;28;20084;-82
2023/04/29 05:40:03;;;;;;;0.20;0.20;;;;;;;12.56;66.63;101921.91;5073059;28;20439;-83
2023/04/29 05:42:30;;;;;;;0.10;0.10;;;;;;;12.58;66.47;101917.44;5069171;28;20060;-83
2023/04/29 05:44:56;;;;;;;0.10;0.10;;;;;;;12.59;66.48;101927.19;5074390;28;20024;-83
2023/04/29 05:47:22;;;;;;;0.68;0.57;;;;;;;12.61;66.21;101925.41;5059663;28;20562;-83
2023/04/29 05:49:48;;;;;;;0.50;0.50;;;;;;;12.59;66.23;101929.84;5071529;28;20879;-83
2023/04/29 05:52:15;;;;;;;0.10;0.10;;;;;;;12.65;66.17;101938.66;5062702;28;20383;-84
2023/04/29 05:54:41;;;;;;;0.10;0.10;;;;;;;12.67;66.42;101937.72;5075424;28;20036;-83
2023/04/29 05:57:07;;;;;;;0.28;0.28;;;;;;;12.69;66.39;101940.41;5071769;28;20025;-83
2023/04/29 05:59:35;;;;;;;0.10;0.10;;;;;;;12.71;66.83;101944.78;5069052;28;20440;-82
2023/04/29 06:02:01;;;;;;;0.98;0.93;;;;;;;12.71;66.89;101949.22;5064745;28;20094;-83
2023/04/29 06:04:27;;;;;;;1.05;1.05;;;;;;;12.76;66.38;101955.34;5062298;28;20127;-82
2023/04/29 06:06:55;;;;;;;0.32;0.32;;;;;;;12.73;66.32;101956.28;5060793;28;20782;-83
2023/04/29 06:09:25;;;;;;;0.38;0.38;;;;;;;12.79;66.70;101960.66;5070453;28;20031;-81
2023/04/29 06:11:51;;;;;;;0.10;0.10;;;;;;;12.82;66.56;101965.94;5070088;28;20028;-83
2023/04/29 06:14:17;;;;;;;0.22;0.22;;;;;;;12.87;66.60;101958.81;5071166;28;20036;-83
2023/04/29 06:16:44;;;;;;;0.10;0.10;;;;;;;12.97;66.62;101964.00;5073153;28;20036;-83
2023/04/29 06:19:10;;;;;;;0.60;0.38;;;;;;;13.04;66.16;101974.53;5065843;28;20035;-83
2023/04/29 06:21:36;;;;;;;0.10;0.10;;;;;;;13.10;66.37;101974.47;5075368;28;20032;-82
2023/04/29 06:24:02;;;;;;;0.10;0.10;;;;;;;13.11;66.00;101970.91;5067606;28;20044;-82
2023/04/29 06:26:28;;;;;;;0.25;0.25;;;;;;;13.20;65.90;101990.34;5075305;28;20037;-82
2023/04/29 06:28:54;;;;;;;0.10;0.10;;;;;;;13.23;66.13;101995.59;5063744;28;20087;-82
2023/04/29 06:31:20;;;;;;;0.10;0.10;;;;;;;13.27;66.18;101989.34;5075106;28;20028;-82
2023/04/29 06:33:47;;;;;;;0.40;0.40;;;;;;;13.29;65.22;101998.19;5080550;28;20052;-83
2023/04/29 06:36:13;;;;;;;0.10;0.10;;;;;;;13.33;65.54;101997.25;5073385;28;20040;-82
2023/04/29 06:38:39;;;;;;;0.10;0.10;;;;;;;13.37;65.32;101998.09;5074466;28;20052;-83
2023/04/29 06:41:05;;;;;;;0.10;0.10;;;;;;;13.37;64.95;102003.41;5075508;28;20054;-79
2023/04/29 06:43:31;;;;;;;0.22;0.22;;;;;;;13.30;64.16;102007.06;5079234;28;20402;-83
2023/04/29 06:45:57;;;;;;;1.55;1.45;;;;;;;13.33;64.93;102005.22;5070948;28;20043;-84
2023/04/29 06:48:23;;;;;;;4.18;1.30;;;;;;;13.29;64.46;102010.63;5081536;28;20085;-83
2023/04/29 06:50:51;;;;;;;0.90;0.90;;;;;;;13.32;65.08;102018.56;5070357;28;20126;-83
2023/04/29 06:53:18;;;;;;;0.10;0.10;;;;;;;13.34;64.98;102019.44;5058922;28;20042;-84
2023/04/29 06:55:45;;;;;;;0.10;0.10;;;;;;;13.34;64.74;102030.09;5066399;28;20032;-82
2023/04/29 06:58:12;;;;;;;0.15;0.15;;;;;;;13.39;64.29;102028.28;5071118;28;20035;-83
2023/04/29 07:00:39;;;;;;;0.32;0.32;;;;;;;13.44;64.52;102039.75;5065633;28;20086;-85
2023/04/29 07:03:05;;;;;;;0.25;0.25;;;;;;;13.49;64.86;102037.03;5065943;28;20409;-84
2023/04/29 07:05:31;;;;;;;0.75;0.75;;;;;;;13.50;64.19;102036.13;5071327;28;20104;-84
2023/04/29 07:07:58;;;;;;;1.55;1.10;;;;;;;13.47;62.90;102042.38;5078650;28;20086;-85
2023/04/29 07:10:25;;;;;;;0.35;0.35;;;;;;;13.55;64.35;102048.47;5061504;28;20059;-85
2023/04/29 07:12:51;;;;;;;0.17;0.17;;;;;;;13.54;63.46;102062.69;5060522;28;20037;-83
2023/04/29 07:15:17;;;;;;;0.10;0.10;;;;;;;13.63;63.51;102053.69;5055144;28;20055;-84
2023/04/29 07:17:44;;;;;;;0.43;0.43;;;;;;;13.66;63.97;102060.78;5063469;28;20021;-86
2023/04/29 07:20:10;;;;;;;0.17;0.17;;;;;;;13.64;63.46;102063.44;5068697;28;20043;-85
2023/04/29 07:22:36;;;;;;;0.65;0.65;;;;;;;13.63;63.52;102063.47;5075335;28;20051;-84
2023/04/29 07:25:03;;;;;;;0.20;0.20;;;;;;;13.59;63.93;102068.84;5076511;28;20051;-83
2023/04/29 07:27:29;;;;;;;0.28;0.28;;;;;;;13.59;63.74;102066.19;5087693;28;20052;-83
2023/04/29 07:29:56;;;;;;;0.82;0.82;;;;;;;13.49;61.97;102075.16;5079040;28;20024;-83
2023/04/29 07:32:22;;;;;;;0.10;0.10;;;;;;;13.51;62.24;102064.53;5084534;28;20111;-83
2023/04/29 07:34:48;;;;;;;0.10;0.10;;;;;;;13.41;62.11;102072.59;5074264;28;20028;-83
2023/04/29 07:37:15;;;;;;;0.10;0.10;;;;;;;13.48;62.73;102080.53;5072478;28;20024;-84
2023/04/29 07:39:41;;;;;;;0.73;0.73;;;;;;;13.50;63.12;102076.94;5087456;28;20082;-81
2023/04/29 07:42:07;;;;;;;0.15;0.15;;;;;;;13.54;63.27;102083.09;5086238;28;20653;-82
2023/04/29 07:44:33;;;;;;;0.10;0.10;;;;;;;13.54;62.38;102081.31;5075037;28;20039;-83
2023/04/29 07:46:59;;;;;;;0.13;0.13;;;;;;;13.58;62.47;102077.72;5072733;28;20028;-83
2023/04/29 07:49:25;;;;;;;0.45;0.45;;;;;;;13.62;62.33;102085.66;5070205;28;20116;-82
2023/04/29 07:51:51;;;;;;;0.13;0.13;;;;;;;13.65;62.66;102090.97;5068483;28;20090;-83
2023/04/29 07:54:18;;;;;;;0.20;0.20;;;;;;;13.64;62.27;102095.41;5068349;28;20039;-83
2023/04/29 07:56:45;;;;;;;0.47;0.47;;;;;;;13.68;62.43;102088.25;5054148;28;20029;-83
2023/04/29 07:59:11;;;;;;;0.85;0.85;;;;;;;13.71;62.13;102088.22;5079764;28;20058;-84
2023/04/29 08:01:37;;;;;;;0.10;0.10;;;;;;;13.77;62.16;102087.25;5072572;28;20489;-80
2023/04/29 08:04:03;;;;;;;0.30;0.30;;;;;;;13.78;61.40;102094.34;5076484;28;20037;-78
2023/04/29 08:06:29;;;;;;;0.75;0.75;;;;;;;13.86;61.76;102097.78;5058283;28;20104;-84
2023/04/29 08:08:55;;;;;;;0.85;0.85;;;;;;;13.90;62.20;102095.03;5078090;28;20016;-80
2023/04/29 08:11:23;;;;;;;0.20;0.20;;;;;;;13.97;61.86;102101.19;5072074;28;20107;-80
2023/04/29 08:13:49;;;;;;;0.38;0.38;;;;;;;14.03;61.78;102089.53;5067585;28;20142;-81
2023/04/29 08:16:16;;;;;;;0.10;0.10;;;;;;;14.11;61.99;102092.13;5073843;28;20562;-80
2023/04/29 08:18:42;;;;;;;0.10;0.10;;;;;;;14.18;61.31;102093.75;5066787;28;20134;-81
2023/04/29 08:21:10;;;;;;;0.10;0.10;;;;;;;14.25;60.84;102090.09;5090514;28;20036;-80
2023/04/29 08:23:37;;;;;;;0.20;0.20;;;;;;;14.24;61.28;102089.25;5082818;28;20107;-80
2023/04/29 08:26:03;;;;;;;0.45;0.45;;;;;;;14.27;61.13;102090.97;5077653;28;20028;-81
2023/04/29 08:28:29;;;;;;;0.32;0.32;;;;;;;14.32;61.32;102093.59;5073232;28;20032;-80
2023/04/29 08:30:55;;;;;;;0.30;0.30;;;;;;;14.37;61.16;102105.06;5073339;28;20063;-84
2023/04/29 08:33:21;;;;;;;0.38;0.38;;;;;;;14.42;59.84;102097.84;5073156;28;20054;-84
2023/04/29 08:35:48;;;;;;;0.20;0.20;;;;;;;14.44;60.40;102103.16;5085325;28;20028;-84
2023/04/29 08:38:15;;;;;;;0.60;0.60;;;;;;;14.45;59.64;102107.59;5086687;28;20464;-84
2023/04/29 08:40:44;;;;;;;0.52;0.52;;;;;;;14.53;60.54;102106.56;5073011;28;20025;-82
2023/04/29 08:43:11;;;;;;;0.10;0.10;;;;;;;14.61;59.39;102116.22;5084362;28;20024;-84
2023/04/29 08:45:38;;;;;;;0.40;0.40;;;;;;;14.69;59.79;102117.00;5078882;28;20092;-83
2023/04/29 08:48:06;;;;;;;0.10;0.10;;;;;;;14.75;59.92;102119.56;5086324;28;20050;-84
2023/04/29 08:50:40;;;;;;;0.10;0.10;;;;;;;14.79;59.56;102123.06;5069576;28;20037;-81
2023/04/29 08:53:07;;;;;;;0.10;0.10;;;;;;;14.75;59.09;102127.56;5086479;28;20091;-84
2023/04/29 08:55:39;;;;;;;2.90;0.77;;;;;;;14.73;59.20;102129.41;5066640;28;20031;-82
2023/04/29 08:58:06;;;;;;;0.20;0.20;;;;;;;14.72;59.25;102130.28;5073064;28;20016;-81
2023/04/29 09:00:34;;;;;;;0.10;0.10;;;;;;;14.75;59.80;102127.56;5074373;28;20029;-84
2023/04/29 09:03:06;;;;;;;0.30;0.30;;;;;;;14.82;59.44;102128.34;5067129;28;20037;-82
2023/04/29 09:05:35;;;;;;;0.75;0.45;;;;;;;14.93;58.93;102131.72;5071872;28;20467;-80
2023/04/29 09:08:03;;;;;;;0.10;0.10;;;;;;;15.06;59.39;102127.03;5075564;28;20025;-81
2023/04/29 09:10:30;;;;;;;0.10;0.10;;;;;;;15.15;58.58;102132.22;5071121;28;20021;-79
2023/04/29 09:12:57;;;;;;;0.10;0.10;;;;;;;15.27;59.17;102130.22;5071684;28;20021;-81
2023/04/29 09:15:23;;;;;;;0.10;0.10;;;;;;;15.33;57.72;102130.97;5067384;28;20032;-81
2023/04/29 09:17:49;;;;;;;0.10;0.10;;;;;;;15.40;57.62;102128.19;5069918;28;20028;-81
2023/04/29 09:23:04;;;;;;;0.10;0.10;;;;;;;15.57;57.78;102122.50;5104996;27;20381;-81
2023/04/29 09:25:30;;;;;;;0.30;0.30;;;;;;;15.57;57.15;102122.50;5100490;28;20038;-80
2023/04/29 09:28:15;;;;;;;0.20;0.20;;;;;;;15.77;57.83;102122.97;5097808;28;20107;-82
2023/04/29 09:30:49;;;;;;;0.10;0.10;;;;;;;15.81;57.59;102124.66;5096140;28;20020;-81
2023/04/29 09:33:16;;;;;;;0.10;0.10;;;;;;;15.87;56.91;102122.81;5098980;28;20029;-80
2023/04/29 09:35:42;;;;;;;0.20;0.20;;;;;;;15.99;57.67;102125.22;5106271;28;20024;-79
2023/04/29 09:38:13;;;;;;;1.15;1.08;;;;;;;16.09;56.91;102121.41;5098416;28;20052;-80
2023/04/29 09:40:41;;;;;;;0.20;0.20;;;;;;;16.18;56.41;102131.00;5108983;28;20059;-82
2023/04/29 09:43:17;;;;;;;0.10;0.10;;;;;;;16.31;56.28;102136.94;5100374;28;20032;-82
2023/04/29 09:45:46;;;;;;;0.10;0.10;;;;;;;16.39;55.86;102134.97;5097724;28;20027;-81
2023/04/29 09:48:13;;;;;;;0.95;0.70;;;;;;;16.47;54.32;102140.16;5104490;28;20032;-79
2023/04/29 09:50:41;;;;;;;0.28;0.28;;;;;;;16.68;55.88;102145.91;5101571;28;20020;-81
2023/04/29 09:53:09;;;;;;;0.10;0.10;;;;;;;16.84;53.54;102141.03;5102818;28;20397;-80
2023/04/29 09:55:56;;;;;;;0.40;0.40;;;;;;;16.93;54.89;102143.50;5100036;28;20043;-81
2023/04/29 09:58:37;;;;;;;0.10;0.10;;;;;;;16.95;54.74;102141.69;5102831;28;20032;-81
2023/04/29 10:01:04;;;;;;;0.20;0.20;;;;;;;16.82;53.90;102136.59;5098371;28;20039;-81
2023/04/29 10:03:33;;;;;;;0.45;0.45;;;;;;;16.84;54.60;102135.69;5100865;28;20114;-81
2023/04/29 10:06:01;;;;;;;0.88;0.73;;;;;;;16.93;54.81;102141.69;5106006;28;20108;-82
2023/04/29 10:08:29;;;;;;;0.10;0.10;;;;;;;17.05;54.24;102145.00;5095419;28;20099;-82
2023/04/29 10:11:00;;;;;;;0.10;0.10;;;;;;;17.18;54.72;102145.53;5090503;28;20020;-80
2023/04/29 10:13:27;;;;;;;0.90;0.90;;;;;;;17.26;54.17;102146.22;5094133;28;20056;-81
2023/04/29 10:16:30;;;;;;;0.10;0.10;;;;;;;17.41;54.35;102150.28;5104070;28;20030;-80
2023/04/29 10:19:02;;;;;;;0.00;0.00;;;;;;;17.47;53.75;102158.16;5090074;28;20512;-81
2023/04/29 10:21:30;;;;;;;0.10;0.10;;;;;;;17.60;53.77;102153.31;5100761;28;20134;-82
2023/04/29 10:23:58;;;;;;;0.30;0.30;;;;;;;17.57;51.82;102153.38;5106727;28;20031;-81
2023/04/29 10:26:28;;;;;;;0.00;0.00;;;;;;;17.62;53.13;102157.69;5090513;28;20024;-81
2023/04/29 10:28:55;;;;;;;0.10;0.10;;;;;;;17.63;53.32;102162.13;5092017;28;20040;-81
2023/04/29 10:31:24;;;;;;;0.65;0.63;;;;;;;17.73;52.56;102154.72;5100513;28;20032;-80
2023/04/29 10:33:54;;;;;;;0.57;0.57;;;;;;;17.88;52.69;102156.06;5079218;28;20587;-81
2023/04/29 10:36:21;;;;;;;0.10;0.10;;;;;;;17.91;51.04;102157.78;5085956;28;20036;-81
2023/04/29 10:38:53;;;;;;;0.10;0.10;;;;;;;17.96;52.37;102161.22;5081362;28;20134;-80
2023/04/29 10:41:24;;;;;;;0.17;0.17;;;;;;;17.90;51.48;102156.00;5089175;28;20131;-82
2023/04/29 10:43:52;;;;;;;0.60;0.60;;;;;;;17.85;51.13;102157.97;5078916;28;20032;-81
2023/04/29 10:49:03;;;;;;;0.00;0.00;;;;;;;18.00;52.11;102154.84;5107011;27;20380;-82
2023/04/29 10:51:33;;;;;;;0.52;0.52;;;;;;;18.06;51.63;102148.41;5091412;28;20397;-79
2023/04/29 10:54:13;;;;;;;0.10;0.10;;;;;;;18.10;49.43;102148.25;5090578;28;20036;-80
2023/04/29 10:56:42;;;;;;;0.82;0.82;;;;;;;18.21;49.87;102144.38;5088590;28;20020;-82
2023/04/29 10:59:11;;;;;;;0.10;0.10;;;;;;;18.25;50.36;102144.22;5084012;28;20020;-81
2023/04/29 11:01:44;;;;;;;0.22;0.22;;;;;;;18.41;50.68;102143.75;5090071;28;20016;-81
2023/04/29 11:04:11;;;;;;;0.10;0.10;;;;;;;18.47;49.62;102146.22;5082618;28;20043;-81
2023/04/29 11:14:50;;;;;;;0.10;0.10;;;;;;;18.90;49.44;102155.56;5072479;28;21154;-81
2023/04/29 11:17:19;;;;;;;0.10;0.10;;;;;;;19.01;48.78;102155.19;5074605;28;20039;-81
2023/04/29 11:19:48;;;;;;;0.10;0.10;;;;;;;19.12;48.82;102164.69;5085436;28;20130;-80
2023/04/29 11:27:35;;;;;;;0.10;0.10;;;;;;;19.22;47.64;102158.06;5129291;27;20389;-80
2023/04/29 11:30:04;;;;;;;0.10;0.10;;;;;;;19.06;48.78;102149.66;5129568;28;20031;-82
2023/04/29 11:32:33;;;;;;;0.10;0.10;;;;;;;19.04;48.58;102155.09;5132761;27;20015;-79
2023/04/29 11:35:16;;;;;;;0.10;0.10;;;;;;;19.20;48.95;102151.84;5131778;28;20037;-82
2023/04/29 11:37:44;;;;;;;0.10;0.10;;;;;;;19.21;48.64;102142.88;5124792;28;20122;-79
2023/04/29 11:40:12;;;;;;;0.10;0.10;;;;;;;19.30;48.70;102150.63;5122187;28;20038;-81
2023/04/29 11:42:44;;;;;;;0.10;0.10;;;;;;;19.45;47.93;102148.28;5132140;28;20450;-80
2023/04/29 11:45:11;;;;;;;;;;;;;;;19.62;47.27;102155.75;5132089;28;20084;-81
2023/04/29 11:47:41;;;;;;;0.30;0.30;;;;;;;19.51;46.77;102158.81;5131679;27;19911;-81
2023/04/29 11:50:09;;;;;;;0.10;0.10;;;;;;;19.49;46.69;102158.00;5130181;27;20023;-81
2023/04/29 11:52:37;;;;;;;0.57;0.47;;;;;;;19.38;47.73;102155.72;5125131;27;20030;-81